sensor_id;sensor_type;location;lat;lon;timestamp;P1;durP1;ratioP1;P2;durP2;ratioP2
57345;SDS011;43181;50.974;18.244;2023-04-06T00:01:37;2.80;;;2.70;;
57345;SDS011;43181;50.974;18.244;2023-04-06T00:04:03;5.60;;;4.10;;
57345;SDS011;43181;50.974;18.244;2023-04-06T00:06:30;4.60;;;2.60;;
57345;SDS011;43181;50.974;18.244;2023-04-06T00:08:55;1.90;;;1.80;;
57345;SDS011;43181;50.974;18.244;2023-04-06T00:11:21;4.40;;;3.50;;
57345;SDS011;43181;50.974;18.244;2023-04-06T00:13:47;1.90;;;1.80;;
57345;SDS011;43181;50.974;18.244;2023-04-06T00:16:13;5.10;;;4.60;;
57345;SDS011;43181;50.974;18.244;2023-04-06T00:18:39;4.00;;;2.00;;
57345;SDS011;43181;50.974;18.244;2023-04-06T00:21:05;2.70;;;2.50;;
57345;SDS011;43181;50.974;18.244;2023-04-06T00:23:31;2.00;;;1.90;;
57345;SDS011;43181;50.974;18.244;2023-04-06T00:25:57;7.20;;;3.40;;
57345;SDS011;43181;50.974;18.244;2023-04-06T00:28:23;3.30;;;2.80;;
57345;SDS011;43181;50.974;18.244;2023-04-06T00:30:54;4.20;;;3.20;;
57345;SDS011;43181;50.974;18.244;2023-04-06T00:33:21;2.90;;;2.50;;
57345;SDS011;43181;50.974;18.244;2023-04-06T00:35:47;4.90;;;3.40;;
57345;SDS011;43181;50.974;18.244;2023-04-06T00:38:13;6.60;;;2.90;;
57345;SDS011;43181;50.974;18.244;2023-04-06T00:40:40;2.20;;;2.00;;
57345;SDS011;43181;50.974;18.244;2023-04-06T00:43:06;1.40;;;1.40;;
57345;SDS011;43181;50.974;18.244;2023-04-06T00:45:32;3.80;;;3.50;;
57345;SDS011;43181;50.974;18.244;2023-04-06T00:47:58;2.60;;;2.50;;
57345;SDS011;43181;50.974;18.244;2023-04-06T00:50:24;1.70;;;1.60;;
57345;SDS011;43181;50.974;18.244;2023-04-06T00:52:50;12.10;;;4.10;;
57345;SDS011;43181;50.974;18.244;2023-04-06T00:55:16;9.90;;;3.80;;
57345;SDS011;43181;50.974;18.244;2023-04-06T00:57:43;6.00;;;2.50;;
57345;SDS011;43181;50.974;18.244;2023-04-06T01:00:09;1.90;;;1.80;;
57345;SDS011;43181;50.974;18.244;2023-04-06T01:02:35;1.90;;;1.90;;
57345;SDS011;43181;50.974;18.244;2023-04-06T01:05:01;7.20;;;3.90;;
57345;SDS011;43181;50.974;18.244;2023-04-06T01:07:27;3.60;;;3.30;;
57345;SDS011;43181;50.974;18.244;2023-04-06T01:09:56;11.60;;;2.60;;
57345;SDS011;43181;50.974;18.244;2023-04-06T01:12:21;2.20;;;2.00;;
57345;SDS011;43181;50.974;18.244;2023-04-06T01:14:47;2.00;;;1.90;;
57345;SDS011;43181;50.974;18.244;2023-04-06T01:17:13;3.30;;;2.30;;
57345;SDS011;43181;50.974;18.244;2023-04-06T01:19:41;3.00;;;2.70;;
57345;SDS011;43181;50.974;18.244;2023-04-06T01:22:07;1.70;;;1.60;;
57345;SDS011;43181;50.974;18.244;2023-04-06T01:24:33;1.70;;;1.60;;
57345;SDS011;43181;50.974;18.244;2023-04-06T01:26:58;2.10;;;2.00;;
57345;SDS011;43181;50.974;18.244;2023-04-06T01:29:24;1.90;;;1.90;;
57345;SDS011;43181;50.974;18.244;2023-04-06T01:31:50;3.80;;;3.60;;
57345;SDS011;43181;50.974;18.244;2023-04-06T01:34:15;1.10;;;1.10;;
57345;SDS011;43181;50.974;18.244;2023-04-06T01:36:41;2.60;;;2.50;;
57345;SDS011;43181;50.974;18.244;2023-04-06T01:39:07;2.20;;;2.10;;
57345;SDS011;43181;50.974;18.244;2023-04-06T01:41:33;1.60;;;1.50;;
57345;SDS011;43181;50.974;18.244;2023-04-06T01:43:59;0.60;;;0.60;;
57345;SDS011;43181;50.974;18.244;2023-04-06T01:46:24;2.70;;;1.00;;
57345;SDS011;43181;50.974;18.244;2023-04-06T01:48:50;2.50;;;2.40;;
57345;SDS011;43181;50.974;18.244;2023-04-06T01:51:16;1.60;;;1.50;;
57345;SDS011;43181;50.974;18.244;2023-04-06T01:53:41;15.80;;;5.00;;
57345;SDS011;43181;50.974;18.244;2023-04-06T01:56:07;4.10;;;3.80;;
57345;SDS011;43181;50.974;18.244;2023-04-06T01:58:33;3.70;;;2.60;;
57345;SDS011;43181;50.974;18.244;2023-04-06T02:00:59;1.10;;;1.10;;
57345;SDS011;43181;50.974;18.244;2023-04-06T02:03:24;1.70;;;1.70;;
57345;SDS011;43181;50.974;18.244;2023-04-06T02:05:50;4.90;;;4.50;;
57345;SDS011;43181;50.974;18.244;2023-04-06T02:08:16;1.60;;;1.50;;
57345;SDS011;43181;50.974;18.244;2023-04-06T02:10:41;1.90;;;1.80;;
57345;SDS011;43181;50.974;18.244;2023-04-06T02:13:07;12.60;;;4.50;;
57345;SDS011;43181;50.974;18.244;2023-04-06T02:15:32;6.40;;;4.20;;
57345;SDS011;43181;50.974;18.244;2023-04-06T02:17:58;1.70;;;1.70;;
57345;SDS011;43181;50.974;18.244;2023-04-06T02:20:24;10.30;;;5.10;;
57345;SDS011;43181;50.974;18.244;2023-04-06T02:22:50;4.90;;;4.60;;
57345;SDS011;43181;50.974;18.244;2023-04-06T02:25:15;4.10;;;3.00;;
57345;SDS011;43181;50.974;18.244;2023-04-06T02:27:42;1.70;;;1.60;;
57345;SDS011;43181;50.974;18.244;2023-04-06T02:30:08;2.20;;;2.00;;
57345;SDS011;43181;50.974;18.244;2023-04-06T02:32:33;3.10;;;3.00;;
57345;SDS011;43181;50.974;18.244;2023-04-06T02:34:59;10.50;;;4.50;;
57345;SDS011;43181;50.974;18.244;2023-04-06T02:37:25;1.90;;;1.80;;
57345;SDS011;43181;50.974;18.244;2023-04-06T02:39:51;5.20;;;3.80;;
57345;SDS011;43181;50.974;18.244;2023-04-06T02:42:16;1.90;;;1.80;;
57345;SDS011;43181;50.974;18.244;2023-04-06T02:44:42;22.10;;;3.60;;
57345;SDS011;43181;50.974;18.244;2023-04-06T02:47:08;6.50;;;4.40;;
57345;SDS011;43181;50.974;18.244;2023-04-06T02:49:34;3.90;;;2.10;;
57345;SDS011;43181;50.974;18.244;2023-04-06T02:52:00;3.60;;;2.90;;
57345;SDS011;43181;50.974;18.244;2023-04-06T02:54:25;3.60;;;3.30;;
57345;SDS011;43181;50.974;18.244;2023-04-06T02:56:51;5.20;;;3.40;;
57345;SDS011;43181;50.974;18.244;2023-04-06T02:59:17;3.40;;;2.30;;
57345;SDS011;43181;50.974;18.244;2023-04-06T03:01:43;2.90;;;2.70;;
57345;SDS011;43181;50.974;18.244;2023-04-06T03:04:08;3.90;;;3.60;;
57345;SDS011;43181;50.974;18.244;2023-04-06T03:06:34;2.50;;;2.30;;
57345;SDS011;43181;50.974;18.244;2023-04-06T03:08:59;9.00;;;4.40;;
57345;SDS011;43181;50.974;18.244;2023-04-06T03:11:25;5.70;;;3.50;;
57345;SDS011;43181;50.974;18.244;2023-04-06T03:13:52;2.30;;;2.20;;
57345;SDS011;43181;50.974;18.244;2023-04-06T03:16:18;3.10;;;2.90;;
57345;SDS011;43181;50.974;18.244;2023-04-06T03:18:45;2.80;;;2.40;;
57345;SDS011;43181;50.974;18.244;2023-04-06T03:21:12;1.40;;;1.30;;
57345;SDS011;43181;50.974;18.244;2023-04-06T03:23:40;4.90;;;2.50;;
57345;SDS011;43181;50.974;18.244;2023-04-06T03:26:06;3.40;;;2.50;;
57345;SDS011;43181;50.974;18.244;2023-04-06T03:28:32;3.50;;;2.80;;
57345;SDS011;43181;50.974;18.244;2023-04-06T03:30:57;5.60;;;4.10;;
57345;SDS011;43181;50.974;18.244;2023-04-06T03:33:23;2.70;;;2.50;;
57345;SDS011;43181;50.974;18.244;2023-04-06T03:35:49;1.70;;;1.60;;
57345;SDS011;43181;50.974;18.244;2023-04-06T03:38:14;3.20;;;2.50;;
57345;SDS011;43181;50.974;18.244;2023-04-06T03:40:40;6.00;;;2.90;;
57345;SDS011;43181;50.974;18.244;2023-04-06T03:43:06;6.60;;;2.60;;
57345;SDS011;43181;50.974;18.244;2023-04-06T03:45:31;6.40;;;5.20;;
57345;SDS011;43181;50.974;18.244;2023-04-06T03:47:57;2.00;;;1.90;;
57345;SDS011;43181;50.974;18.244;2023-04-06T03:50:22;4.50;;;3.60;;
57345;SDS011;43181;50.974;18.244;2023-04-06T03:52:48;3.90;;;3.60;;
57345;SDS011;43181;50.974;18.244;2023-04-06T03:55:14;2.20;;;1.90;;
57345;SDS011;43181;50.974;18.244;2023-04-06T03:57:39;3.50;;;3.20;;
57345;SDS011;43181;50.974;18.244;2023-04-06T04:00:05;1.20;;;1.20;;
57345;SDS011;43181;50.974;18.244;2023-04-06T04:02:32;4.10;;;1.70;;
57345;SDS011;43181;50.974;18.244;2023-04-06T04:04:57;3.30;;;2.70;;
57345;SDS011;43181;50.974;18.244;2023-04-06T04:07:23;2.40;;;2.20;;
57345;SDS011;43181;50.974;18.244;2023-04-06T04:09:48;1.80;;;1.70;;
57345;SDS011;43181;50.974;18.244;2023-04-06T04:12:14;1.40;;;1.40;;
57345;SDS011;43181;50.974;18.244;2023-04-06T04:14:41;14.00;;;3.70;;
57345;SDS011;43181;50.974;18.244;2023-04-06T04:17:08;6.70;;;6.10;;
57345;SDS011;43181;50.974;18.244;2023-04-06T04:19:33;6.10;;;4.80;;
57345;SDS011;43181;50.974;18.244;2023-04-06T04:21:59;2.20;;;2.10;;
57345;SDS011;43181;50.974;18.244;2023-04-06T04:24:25;3.00;;;2.80;;
57345;SDS011;43181;50.974;18.244;2023-04-06T04:26:51;2.10;;;1.90;;
57345;SDS011;43181;50.974;18.244;2023-04-06T04:29:17;9.90;;;4.20;;
57345;SDS011;43181;50.974;18.244;2023-04-06T04:31:46;4.10;;;3.80;;
57345;SDS011;43181;50.974;18.244;2023-04-06T04:34:11;5.90;;;3.40;;
57345;SDS011;43181;50.974;18.244;2023-04-06T04:36:37;2.10;;;2.00;;
57345;SDS011;43181;50.974;18.244;2023-04-06T04:39:03;1.60;;;1.60;;
57345;SDS011;43181;50.974;18.244;2023-04-06T04:41:29;8.20;;;3.60;;
57345;SDS011;43181;50.974;18.244;2023-04-06T04:43:55;4.30;;;4.00;;
57345;SDS011;43181;50.974;18.244;2023-04-06T04:46:20;30.50;;;7.30;;
57345;SDS011;43181;50.974;18.244;2023-04-06T04:48:46;7.40;;;6.40;;
57345;SDS011;43181;50.974;18.244;2023-04-06T04:51:12;6.80;;;3.60;;
57345;SDS011;43181;50.974;18.244;2023-04-06T04:53:37;3.20;;;2.90;;
57345;SDS011;43181;50.974;18.244;2023-04-06T04:56:03;3.80;;;3.40;;
57345;SDS011;43181;50.974;18.244;2023-04-06T04:58:29;3.10;;;2.60;;
57345;SDS011;43181;50.974;18.244;2023-04-06T05:00:55;1.90;;;1.80;;
57345;SDS011;43181;50.974;18.244;2023-04-06T05:03:22;8.20;;;2.90;;
57345;SDS011;43181;50.974;18.244;2023-04-06T05:05:49;2.30;;;2.20;;
57345;SDS011;43181;50.974;18.244;2023-04-06T05:08:15;7.60;;;3.20;;
57345;SDS011;43181;50.974;18.244;2023-04-06T05:10:41;3.40;;;2.70;;
57345;SDS011;43181;50.974;18.244;2023-04-06T05:13:06;2.00;;;1.90;;
57345;SDS011;43181;50.974;18.244;2023-04-06T05:15:32;3.20;;;2.90;;
57345;SDS011;43181;50.974;18.244;2023-04-06T05:18:00;2.20;;;2.00;;
57345;SDS011;43181;50.974;18.244;2023-04-06T05:20:26;26.60;;;6.40;;
57345;SDS011;43181;50.974;18.244;2023-04-06T05:22:53;4.50;;;3.80;;
57345;SDS011;43181;50.974;18.244;2023-04-06T05:25:19;3.60;;;3.30;;
57345;SDS011;43181;50.974;18.244;2023-04-06T05:27:45;3.50;;;3.10;;
57345;SDS011;43181;50.974;18.244;2023-04-06T05:30:11;3.50;;;3.10;;
57345;SDS011;43181;50.974;18.244;2023-04-06T05:32:37;4.80;;;4.20;;
57345;SDS011;43181;50.974;18.244;2023-04-06T05:35:02;4.00;;;3.60;;
57345;SDS011;43181;50.974;18.244;2023-04-06T05:37:28;6.30;;;5.70;;
57345;SDS011;43181;50.974;18.244;2023-04-06T05:39:54;7.70;;;6.30;;
57345;SDS011;43181;50.974;18.244;2023-04-06T05:42:20;5.10;;;4.60;;
57345;SDS011;43181;50.974;18.244;2023-04-06T05:44:47;9.40;;;7.80;;
57345;SDS011;43181;50.974;18.244;2023-04-06T05:47:12;11.90;;;7.40;;
57345;SDS011;43181;50.974;18.244;2023-04-06T05:49:38;6.10;;;5.00;;
57345;SDS011;43181;50.974;18.244;2023-04-06T05:52:04;9.30;;;7.10;;
57345;SDS011;43181;50.974;18.244;2023-04-06T05:54:30;10.10;;;6.30;;
57345;SDS011;43181;50.974;18.244;2023-04-06T05:56:55;7.50;;;5.70;;
57345;SDS011;43181;50.974;18.244;2023-04-06T05:59:21;5.40;;;5.00;;
57345;SDS011;43181;50.974;18.244;2023-04-06T06:01:47;6.60;;;5.50;;
57345;SDS011;43181;50.974;18.244;2023-04-06T06:04:12;7.00;;;6.10;;
57345;SDS011;43181;50.974;18.244;2023-04-06T06:06:38;10.10;;;5.50;;
57345;SDS011;43181;50.974;18.244;2023-04-06T06:09:04;12.70;;;7.10;;
57345;SDS011;43181;50.974;18.244;2023-04-06T06:11:30;11.10;;;6.20;;
57345;SDS011;43181;50.974;18.244;2023-04-06T06:13:55;15.60;;;6.10;;
57345;SDS011;43181;50.974;18.244;2023-04-06T06:16:21;7.30;;;4.80;;
57345;SDS011;43181;50.974;18.244;2023-04-06T06:18:47;6.30;;;5.20;;
57345;SDS011;43181;50.974;18.244;2023-04-06T06:21:13;8.70;;;5.20;;
57345;SDS011;43181;50.974;18.244;2023-04-06T06:23:40;15.30;;;6.00;;
57345;SDS011;43181;50.974;18.244;2023-04-06T06:26:07;8.90;;;5.90;;
57345;SDS011;43181;50.974;18.244;2023-04-06T06:28:33;12.60;;;5.80;;
57345;SDS011;43181;50.974;18.244;2023-04-06T06:30:59;11.20;;;5.50;;
57345;SDS011;43181;50.974;18.244;2023-04-06T06:33:24;14.40;;;6.30;;
57345;SDS011;43181;50.974;18.244;2023-04-06T06:35:51;8.70;;;6.10;;
57345;SDS011;43181;50.974;18.244;2023-04-06T06:38:17;5.90;;;5.40;;
57345;SDS011;43181;50.974;18.244;2023-04-06T06:40:44;6.80;;;4.20;;
57345;SDS011;43181;50.974;18.244;2023-04-06T06:43:11;12.40;;;5.70;;
57345;SDS011;43181;50.974;18.244;2023-04-06T06:45:36;10.10;;;7.10;;
57345;SDS011;43181;50.974;18.244;2023-04-06T06:48:02;11.10;;;6.50;;
57345;SDS011;43181;50.974;18.244;2023-04-06T06:50:28;9.90;;;6.10;;
57345;SDS011;43181;50.974;18.244;2023-04-06T06:52:53;14.50;;;8.00;;
57345;SDS011;43181;50.974;18.244;2023-04-06T06:55:20;13.00;;;6.30;;
57345;SDS011;43181;50.974;18.244;2023-04-06T06:57:45;7.70;;;4.50;;
57345;SDS011;43181;50.974;18.244;2023-04-06T07:00:12;9.50;;;5.30;;
57345;SDS011;43181;50.974;18.244;2023-04-06T07:02:39;16.70;;;6.70;;
57345;SDS011;43181;50.974;18.244;2023-04-06T07:05:07;20.90;;;8.00;;
57345;SDS011;43181;50.974;18.244;2023-04-06T07:07:34;6.90;;;3.80;;
57345;SDS011;43181;50.974;18.244;2023-04-06T07:09:59;8.10;;;4.90;;
57345;SDS011;43181;50.974;18.244;2023-04-06T07:12:26;12.60;;;4.80;;
57345;SDS011;43181;50.974;18.244;2023-04-06T07:14:51;8.40;;;4.20;;
57345;SDS011;43181;50.974;18.244;2023-04-06T07:17:17;9.90;;;5.00;;
57345;SDS011;43181;50.974;18.244;2023-04-06T07:19:44;8.80;;;4.50;;
57345;SDS011;43181;50.974;18.244;2023-04-06T07:22:11;9.10;;;5.40;;
57345;SDS011;43181;50.974;18.244;2023-04-06T07:24:37;6.10;;;3.30;;
57345;SDS011;43181;50.974;18.244;2023-04-06T07:27:03;6.20;;;4.00;;
57345;SDS011;43181;50.974;18.244;2023-04-06T07:29:29;13.80;;;6.10;;
57345;SDS011;43181;50.974;18.244;2023-04-06T07:31:55;9.20;;;4.20;;
57345;SDS011;43181;50.974;18.244;2023-04-06T07:34:21;2.90;;;2.10;;
57345;SDS011;43181;50.974;18.244;2023-04-06T07:36:47;5.80;;;4.10;;
57345;SDS011;43181;50.974;18.244;2023-04-06T07:39:12;8.20;;;4.80;;
57345;SDS011;43181;50.974;18.244;2023-04-06T07:41:41;6.80;;;4.20;;
57345;SDS011;43181;50.974;18.244;2023-04-06T07:44:07;8.40;;;4.50;;
57345;SDS011;43181;50.974;18.244;2023-04-06T07:46:32;4.70;;;3.70;;
57345;SDS011;43181;50.974;18.244;2023-04-06T07:48:58;5.70;;;3.60;;
57345;SDS011;43181;50.974;18.244;2023-04-06T07:51:25;6.90;;;4.20;;
57345;SDS011;43181;50.974;18.244;2023-04-06T07:53:51;5.20;;;2.90;;
57345;SDS011;43181;50.974;18.244;2023-04-06T07:56:17;10.30;;;4.10;;
57345;SDS011;43181;50.974;18.244;2023-04-06T07:58:43;7.20;;;2.70;;
57345;SDS011;43181;50.974;18.244;2023-04-06T08:01:09;8.00;;;3.30;;
57345;SDS011;43181;50.974;18.244;2023-04-06T08:03:37;7.80;;;3.90;;
57345;SDS011;43181;50.974;18.244;2023-04-06T08:06:03;7.00;;;3.90;;
57345;SDS011;43181;50.974;18.244;2023-04-06T08:08:29;11.20;;;4.10;;
57345;SDS011;43181;50.974;18.244;2023-04-06T08:10:56;5.90;;;4.30;;
57345;SDS011;43181;50.974;18.244;2023-04-06T08:13:21;7.10;;;3.00;;
57345;SDS011;43181;50.974;18.244;2023-04-06T08:15:47;9.00;;;3.60;;
57345;SDS011;43181;50.974;18.244;2023-04-06T08:18:12;8.00;;;3.20;;
57345;SDS011;43181;50.974;18.244;2023-04-06T08:20:38;5.20;;;2.90;;
57345;SDS011;43181;50.974;18.244;2023-04-06T08:23:05;10.20;;;3.30;;
57345;SDS011;43181;50.974;18.244;2023-04-06T08:25:33;5.50;;;2.70;;
57345;SDS011;43181;50.974;18.244;2023-04-06T08:27:59;4.30;;;2.50;;
57345;SDS011;43181;50.974;18.244;2023-04-06T08:30:25;4.30;;;2.50;;
57345;SDS011;43181;50.974;18.244;2023-04-06T08:32:51;9.60;;;3.70;;
57345;SDS011;43181;50.974;18.244;2023-04-06T08:35:17;10.10;;;3.30;;
57345;SDS011;43181;50.974;18.244;2023-04-06T08:37:42;4.80;;;2.10;;
57345;SDS011;43181;50.974;18.244;2023-04-06T08:40:08;3.80;;;1.80;;
57345;SDS011;43181;50.974;18.244;2023-04-06T08:42:37;5.20;;;2.30;;
57345;SDS011;43181;50.974;18.244;2023-04-06T08:45:06;3.10;;;1.50;;
57345;SDS011;43181;50.974;18.244;2023-04-06T08:47:33;3.20;;;1.80;;
57345;SDS011;43181;50.974;18.244;2023-04-06T08:49:59;7.00;;;2.10;;
57345;SDS011;43181;50.974;18.244;2023-04-06T08:52:29;5.00;;;2.50;;
57345;SDS011;43181;50.974;18.244;2023-04-06T08:54:57;5.30;;;1.90;;
57345;SDS011;43181;50.974;18.244;2023-04-06T08:57:22;5.40;;;1.90;;
57345;SDS011;43181;50.974;18.244;2023-04-06T08:59:49;8.60;;;2.70;;
57345;SDS011;43181;50.974;18.244;2023-04-06T09:02:16;6.20;;;2.80;;
57345;SDS011;43181;50.974;18.244;2023-04-06T09:04:43;5.20;;;2.70;;
57345;SDS011;43181;50.974;18.244;2023-04-06T09:07:11;3.10;;;2.50;;
57345;SDS011;43181;50.974;18.244;2023-04-06T09:09:37;4.60;;;2.70;;
57345;SDS011;43181;50.974;18.244;2023-04-06T09:12:08;2.70;;;2.20;;
57345;SDS011;43181;50.974;18.244;2023-04-06T09:14:38;5.20;;;2.50;;
57345;SDS011;43181;50.974;18.244;2023-04-06T09:17:04;2.30;;;1.40;;
57345;SDS011;43181;50.974;18.244;2023-04-06T09:19:30;5.10;;;2.60;;
57345;SDS011;43181;50.974;18.244;2023-04-06T09:22:03;3.60;;;2.00;;
57345;SDS011;43181;50.974;18.244;2023-04-06T09:24:39;4.00;;;2.40;;
57345;SDS011;43181;50.974;18.244;2023-04-06T09:27:09;2.90;;;2.20;;
57345;SDS011;43181;50.974;18.244;2023-04-06T09:29:35;2.00;;;1.50;;
57345;SDS011;43181;50.974;18.244;2023-04-06T09:32:03;3.10;;;1.90;;
57345;SDS011;43181;50.974;18.244;2023-04-06T09:34:39;2.30;;;2.00;;
57345;SDS011;43181;50.974;18.244;2023-04-06T09:37:17;2.00;;;1.30;;
57345;SDS011;43181;50.974;18.244;2023-04-06T09:39:44;1.50;;;1.40;;
57345;SDS011;43181;50.974;18.244;2023-04-06T09:42:26;2.90;;;1.70;;
57345;SDS011;43181;50.974;18.244;2023-04-06T09:44:52;3.30;;;1.50;;
57345;SDS011;43181;50.974;18.244;2023-04-06T09:47:17;3.70;;;1.80;;
57345;SDS011;43181;50.974;18.244;2023-04-06T09:49:44;2.60;;;2.30;;
57345;SDS011;43181;50.974;18.244;2023-04-06T09:52:14;2.80;;;1.40;;
57345;SDS011;43181;50.974;18.244;2023-04-06T09:54:41;2.00;;;1.10;;
57345;SDS011;43181;50.974;18.244;2023-04-06T09:57:25;2.20;;;1.90;;
57345;SDS011;43181;50.974;18.244;2023-04-06T10:08:10;5.20;;;2.10;;
57345;SDS011;43181;50.974;18.244;2023-04-06T10:10:37;4.30;;;1.70;;
57345;SDS011;43181;50.974;18.244;2023-04-06T10:13:03;4.20;;;1.80;;
57345;SDS011;43181;50.974;18.244;2023-04-06T10:15:29;2.50;;;2.20;;
57345;SDS011;43181;50.974;18.244;2023-04-06T10:17:59;9.30;;;2.30;;
57345;SDS011;43181;50.974;18.244;2023-04-06T10:23:11;2.10;;;1.60;;
57345;SDS011;43181;50.974;18.244;2023-04-06T10:28:20;3.10;;;1.80;;
57345;SDS011;43181;50.974;18.244;2023-04-06T10:30:46;2.40;;;1.20;;
57345;SDS011;43181;50.974;18.244;2023-04-06T10:33:16;2.60;;;1.60;;
57345;SDS011;43181;50.974;18.244;2023-04-06T10:35:43;4.30;;;2.40;;
57345;SDS011;43181;50.974;18.244;2023-04-06T10:38:08;4.70;;;2.00;;
57345;SDS011;43181;50.974;18.244;2023-04-06T10:40:37;2.60;;;1.60;;
57345;SDS011;43181;50.974;18.244;2023-04-06T10:43:08;2.90;;;1.90;;
57345;SDS011;43181;50.974;18.244;2023-04-06T10:45:35;3.60;;;2.00;;
57345;SDS011;43181;50.974;18.244;2023-04-06T10:48:01;2.80;;;1.60;;
57345;SDS011;43181;50.974;18.244;2023-04-06T10:50:41;3.40;;;1.60;;
57345;SDS011;43181;50.974;18.244;2023-04-06T10:53:08;3.30;;;1.90;;
57345;SDS011;43181;50.974;18.244;2023-04-06T10:55:34;2.70;;;1.60;;
57345;SDS011;43181;50.974;18.244;2023-04-06T10:58:00;1.80;;;1.20;;
57345;SDS011;43181;50.974;18.244;2023-04-06T11:00:25;3.90;;;1.80;;
57345;SDS011;43181;50.974;18.244;2023-04-06T11:02:51;3.00;;;1.90;;
57345;SDS011;43181;50.974;18.244;2023-04-06T11:05:24;5.30;;;1.10;;
57345;SDS011;43181;50.974;18.244;2023-04-06T11:07:50;4.60;;;1.50;;
57345;SDS011;43181;50.974;18.244;2023-04-06T11:10:20;1.70;;;1.60;;
57345;SDS011;43181;50.974;18.244;2023-04-06T11:12:52;5.20;;;1.40;;
57345;SDS011;43181;50.974;18.244;2023-04-06T11:15:19;1.90;;;1.50;;
57345;SDS011;43181;50.974;18.244;2023-04-06T11:17:45;1.00;;;0.80;;
57345;SDS011;43181;50.974;18.244;2023-04-06T11:20:11;1.70;;;1.20;;
57345;SDS011;43181;50.974;18.244;2023-04-06T11:22:50;2.00;;;1.40;;
57345;SDS011;43181;50.974;18.244;2023-04-06T11:25:17;3.70;;;1.70;;
57345;SDS011;43181;50.974;18.244;2023-04-06T11:27:43;3.30;;;1.80;;
57345;SDS011;43181;50.974;18.244;2023-04-06T11:30:09;3.00;;;1.40;;
57345;SDS011;43181;50.974;18.244;2023-04-06T11:32:42;2.00;;;1.70;;
57345;SDS011;43181;50.974;18.244;2023-04-06T11:35:22;1.80;;;1.30;;
57345;SDS011;43181;50.974;18.244;2023-04-06T11:37:49;2.10;;;1.50;;
57345;SDS011;43181;50.974;18.244;2023-04-06T11:40:15;2.50;;;1.90;;
57345;SDS011;43181;50.974;18.244;2023-04-06T11:42:51;3.10;;;2.10;;
57345;SDS011;43181;50.974;18.244;2023-04-06T11:45:17;1.40;;;1.00;;
57345;SDS011;43181;50.974;18.244;2023-04-06T11:47:43;4.80;;;1.80;;
57345;SDS011;43181;50.974;18.244;2023-04-06T11:50:10;3.20;;;1.60;;
57345;SDS011;43181;50.974;18.244;2023-04-06T11:52:37;2.00;;;1.60;;
57345;SDS011;43181;50.974;18.244;2023-04-06T11:55:14;2.20;;;1.50;;
57345;SDS011;43181;50.974;18.244;2023-04-06T11:57:41;1.70;;;1.40;;
57345;SDS011;43181;50.974;18.244;2023-04-06T12:00:08;2.30;;;1.80;;
57345;SDS011;43181;50.974;18.244;2023-04-06T12:02:35;1.70;;;1.50;;
57345;SDS011;43181;50.974;18.244;2023-04-06T12:05:02;1.90;;;1.60;;
57345;SDS011;43181;50.974;18.244;2023-04-06T12:07:29;1.60;;;1.20;;
57345;SDS011;43181;50.974;18.244;2023-04-06T12:09:55;3.00;;;2.60;;
57345;SDS011;43181;50.974;18.244;2023-04-06T12:12:21;2.60;;;1.90;;
57345;SDS011;43181;50.974;18.244;2023-04-06T12:14:47;4.60;;;2.10;;
57345;SDS011;43181;50.974;18.244;2023-04-06T12:17:13;1.80;;;1.30;;
57345;SDS011;43181;50.974;18.244;2023-04-06T12:19:38;2.40;;;1.00;;
57345;SDS011;43181;50.974;18.244;2023-04-06T12:22:04;2.60;;;1.80;;
57345;SDS011;43181;50.974;18.244;2023-04-06T12:24:30;3.30;;;2.70;;
57345;SDS011;43181;50.974;18.244;2023-04-06T12:26:56;1.20;;;1.20;;
57345;SDS011;43181;50.974;18.244;2023-04-06T12:29:23;2.40;;;1.30;;
57345;SDS011;43181;50.974;18.244;2023-04-06T12:31:50;3.00;;;1.70;;
57345;SDS011;43181;50.974;18.244;2023-04-06T12:34:18;3.90;;;2.30;;
57345;SDS011;43181;50.974;18.244;2023-04-06T12:36:43;3.50;;;1.80;;
57345;SDS011;43181;50.974;18.244;2023-04-06T12:39:09;1.60;;;1.50;;
57345;SDS011;43181;50.974;18.244;2023-04-06T12:41:36;4.00;;;2.10;;
57345;SDS011;43181;50.974;18.244;2023-04-06T12:44:02;3.40;;;1.50;;
57345;SDS011;43181;50.974;18.244;2023-04-06T12:46:28;3.60;;;1.80;;
57345;SDS011;43181;50.974;18.244;2023-04-06T12:48:57;2.30;;;1.40;;
57345;SDS011;43181;50.974;18.244;2023-04-06T12:51:24;1.70;;;1.50;;
57345;SDS011;43181;50.974;18.244;2023-04-06T12:53:53;2.70;;;1.60;;
57345;SDS011;43181;50.974;18.244;2023-04-06T12:56:19;3.10;;;1.50;;
57345;SDS011;43181;50.974;18.244;2023-04-06T12:58:47;4.70;;;1.30;;
57345;SDS011;43181;50.974;18.244;2023-04-06T13:01:13;2.30;;;1.50;;
57345;SDS011;43181;50.974;18.244;2023-04-06T13:03:39;2.50;;;1.60;;
57345;SDS011;43181;50.974;18.244;2023-04-06T13:06:06;2.20;;;1.10;;
57345;SDS011;43181;50.974;18.244;2023-04-06T13:08:33;0.80;;;0.70;;
57345;SDS011;43181;50.974;18.244;2023-04-06T13:11:00;1.20;;;1.20;;
57345;SDS011;43181;50.974;18.244;2023-04-06T13:13:26;2.80;;;2.40;;
57345;SDS011;43181;50.974;18.244;2023-04-06T13:15:53;2.90;;;2.60;;
57345;SDS011;43181;50.974;18.244;2023-04-06T13:18:24;2.30;;;2.00;;
57345;SDS011;43181;50.974;18.244;2023-04-06T13:20:49;3.10;;;2.00;;
57345;SDS011;43181;50.974;18.244;2023-04-06T13:23:15;4.30;;;1.50;;
57345;SDS011;43181;50.974;18.244;2023-04-06T13:25:41;2.00;;;1.80;;
57345;SDS011;43181;50.974;18.244;2023-04-06T13:28:07;4.40;;;1.90;;
57345;SDS011;43181;50.974;18.244;2023-04-06T13:30:34;2.70;;;1.90;;
57345;SDS011;43181;50.974;18.244;2023-04-06T13:33:01;4.20;;;2.20;;
57345;SDS011;43181;50.974;18.244;2023-04-06T13:35:27;3.80;;;2.30;;
57345;SDS011;43181;50.974;18.244;2023-04-06T13:37:52;7.40;;;2.10;;
57345;SDS011;43181;50.974;18.244;2023-04-06T13:40:18;7.20;;;3.70;;
57345;SDS011;43181;50.974;18.244;2023-04-06T13:42:44;5.10;;;2.70;;
57345;SDS011;43181;50.974;18.244;2023-04-06T13:45:11;3.60;;;2.30;;
57345;SDS011;43181;50.974;18.244;2023-04-06T13:47:37;2.50;;;2.30;;
57345;SDS011;43181;50.974;18.244;2023-04-06T13:50:03;2.10;;;0.90;;
57345;SDS011;43181;50.974;18.244;2023-04-06T13:52:29;4.70;;;2.00;;
57345;SDS011;43181;50.974;18.244;2023-04-06T13:54:55;3.90;;;2.70;;
57345;SDS011;43181;50.974;18.244;2023-04-06T13:57:21;3.90;;;2.60;;
57345;SDS011;43181;50.974;18.244;2023-04-06T13:59:46;4.10;;;2.00;;
57345;SDS011;43181;50.974;18.244;2023-04-06T14:02:13;3.40;;;1.70;;
57345;SDS011;43181;50.974;18.244;2023-04-06T14:04:38;2.90;;;2.00;;
57345;SDS011;43181;50.974;18.244;2023-04-06T14:07:04;3.50;;;2.20;;
57345;SDS011;43181;50.974;18.244;2023-04-06T14:09:32;3.00;;;2.40;;
57345;SDS011;43181;50.974;18.244;2023-04-06T14:11:58;3.30;;;2.40;;
57345;SDS011;43181;50.974;18.244;2023-04-06T14:14:24;3.00;;;2.00;;
57345;SDS011;43181;50.974;18.244;2023-04-06T14:16:51;2.20;;;1.70;;
57345;SDS011;43181;50.974;18.244;2023-04-06T14:19:17;3.30;;;1.90;;
57345;SDS011;43181;50.974;18.244;2023-04-06T14:21:43;1.90;;;1.60;;
57345;SDS011;43181;50.974;18.244;2023-04-06T14:24:12;2.50;;;2.40;;
57345;SDS011;43181;50.974;18.244;2023-04-06T14:26:39;8.20;;;3.20;;
57345;SDS011;43181;50.974;18.244;2023-04-06T14:29:06;2.70;;;1.70;;
57345;SDS011;43181;50.974;18.244;2023-04-06T14:31:33;4.70;;;2.50;;
57345;SDS011;43181;50.974;18.244;2023-04-06T14:34:00;2.80;;;2.50;;
57345;SDS011;43181;50.974;18.244;2023-04-06T14:36:27;2.40;;;1.40;;
57345;SDS011;43181;50.974;18.244;2023-04-06T14:38:56;3.90;;;2.40;;
57345;SDS011;43181;50.974;18.244;2023-04-06T14:41:23;2.40;;;1.80;;
57345;SDS011;43181;50.974;18.244;2023-04-06T14:43:52;3.50;;;1.80;;